Time;durP1;ratioP1;P1;durP2;ratioP2;P2;SDS_P1;SDS_P2;PMS_P1;PMS_P2;Temp;Humidity;BMP_temperature;BMP_pressure;BME280_temperature;BME280_humidity;BME280_pressure;Samples;Min_cycle;Max_cycle;Signal;HPM_P1;HPM_P2
2020/12/18 00:01:07;;;;;;;10.47;6.47;;;6.80;99.90;;;;;;4955166;28;20558;-88
2020/12/18 00:03:33;;;;;;;4.43;4.03;;;6.80;99.90;;;;;;4986057;28;20730;-88
2020/12/18 00:05:59;;;;;;;6.47;5.37;;;6.80;99.90;;;;;;5002384;28;20326;-88
2020/12/18 00:08:25;;;;;;;9.73;6.80;;;6.70;99.90;;;;;;4971812;28;20238;-88
2020/12/18 00:10:51;;;;;;;10.70;6.37;;;6.80;99.90;;;;;;4953760;28;20215;-88
2020/12/18 00:13:16;;;;;;;6.20;5.53;;;6.80;99.90;;;;;;4985724;28;21293;-88
2020/12/18 00:15:42;;;;;;;6.40;5.83;;;6.80;99.90;;;;;;4953951;28;20226;-89
2020/12/18 00:18:08;;;;;;;13.47;6.73;;;6.80;99.90;;;;;;4985346;28;21152;-88
2020/12/18 00:20:33;;;;;;;4.03;2.60;;;6.80;99.90;;;;;;4954051;28;20793;-88
2020/12/18 00:22:59;;;;;;;8.37;5.67;;;6.80;99.90;;;;;;4987343;28;20195;-88
2020/12/18 00:25:25;;;;;;;8.13;4.30;;;6.80;99.90;;;;;;4969241;28;21193;-87
2020/12/18 00:27:51;;;;;;;4.27;3.63;;;6.80;99.90;;;;;;4970537;28;20242;-88
2020/12/18 00:30:16;;;;;;;7.53;5.20;;;6.80;99.90;;;;;;4954386;28;20227;-88
2020/12/18 00:32:42;;;;;;;11.00;6.67;;;6.70;99.90;;;;;;4969830;28;20176;-88
2020/12/18 00:35:10;;;;;;;10.53;5.43;;;6.80;99.90;;;;;;4987004;28;20187;-88
2020/12/18 00:37:37;;;;;;;7.43;4.70;;;6.70;99.90;;;;;;4985431;28;20215;-87
2020/12/18 00:40:06;;;;;;;10.33;6.13;;;6.80;99.90;;;;;;5002716;28;20226;-87
2020/12/18 00:42:32;;;;;;;13.27;6.00;;;6.70;99.90;;;;;;4968970;28;20254;-88
2020/12/18 00:44:58;;;;;;;8.93;5.43;;;6.80;99.90;;;;;;4981989;28;20325;-88
2020/12/18 00:47:24;;;;;;;6.13;5.30;;;6.80;99.90;;;;;;4971467;28;20183;-88
2020/12/18 00:49:50;;;;;;;7.47;3.77;;;6.70;99.90;;;;;;5002324;28;20223;-88
2020/12/18 00:52:15;;;;;;;18.43;7.00;;;6.70;99.90;;;;;;4952485;28;20230;-90
2020/12/18 00:54:41;;;;;;;6.43;4.77;;;6.80;99.90;;;;;;4969206;28;21405;-87
2020/12/18 00:57:07;;;;;;;6.60;5.10;;;6.80;99.90;;;;;;4969141;28;20729;-89
2020/12/18 00:59:33;;;;;;;5.73;5.07;;;6.80;99.90;;;;;;4969538;28;20191;-88
2020/12/18 01:02:05;;;;;;;4.83;4.43;;;6.80;99.90;;;;;;4971747;28;20237;-88
2020/12/18 01:04:31;;;;;;;8.07;6.63;;;6.80;99.90;;;;;;4968388;28;20232;-88
2020/12/18 01:06:57;;;;;;;6.57;5.50;;;6.80;99.90;;;;;;5001989;28;20242;-87
2020/12/18 01:09:23;;;;;;;7.20;4.77;;;6.80;99.90;;;;;;4984004;28;20290;-88
2020/12/18 01:11:50;;;;;;;9.23;5.17;;;6.80;99.90;;;;;;4969000;28;20279;-88
2020/12/18 01:14:16;;;;;;;9.23;3.57;;;6.80;99.90;;;;;;4970628;28;20192;-88
2020/12/18 01:16:42;;;;;;;9.07;6.20;;;6.80;99.90;;;;;;4983684;28;20227;-88
2020/12/18 01:19:08;;;;;;;11.87;5.83;;;6.80;99.90;;;;;;4969323;28;20223;-88
2020/12/18 01:21:36;;;;;;;8.17;4.87;;;6.80;99.90;;;;;;4968646;28;20227;-87
2020/12/18 01:24:02;;;;;;;4.83;3.90;;;6.80;99.90;;;;;;4952823;28;20235;-88
2020/12/18 01:26:28;;;;;;;11.57;6.40;;;6.80;99.90;;;;;;4954327;28;20661;-88
2020/12/18 01:28:54;;;;;;;6.10;3.87;;;6.80;99.90;;;;;;5000625;28;20234;-89
2020/12/18 01:31:19;;;;;;;6.87;5.57;;;6.90;99.90;;;;;;4952654;28;21197;-88
2020/12/18 01:33:45;;;;;;;7.87;5.40;;;6.90;99.90;;;;;;4951784;28;20310;-87
2020/12/18 01:36:11;;;;;;;10.20;6.30;;;6.90;99.90;;;;;;4968640;28;20230;-88
2020/12/18 01:38:36;;;;;;;9.10;5.93;;;7.00;99.90;;;;;;4968368;28;20656;-87
2020/12/18 01:41:02;;;;;;;5.90;4.97;;;6.90;99.90;;;;;;4968953;28;20234;-88
2020/12/18 01:43:28;;;;;;;6.83;5.23;;;6.90;99.90;;;;;;5001260;28;20231;-88
2020/12/18 01:46:02;;;;;;;12.63;5.47;;;6.90;99.90;;;;;;4966428;28;20251;-87
2020/12/18 01:48:29;;;;;;;7.77;6.30;;;6.90;99.90;;;;;;5001131;28;20222;-88
2020/12/18 01:50:54;;;;;;;8.30;4.47;;;6.90;99.90;;;;;;4983719;28;20300;-89
2020/12/18 01:53:21;;;;;;;6.50;5.90;;;6.90;99.90;;;;;;4969411;28;20200;-87
2020/12/18 01:55:49;;;;;;;5.77;5.13;;;6.80;99.90;;;;;;4951477;28;20223;-88
2020/12/18 01:58:15;;;;;;;9.87;5.40;;;6.80;99.90;;;;;;4967321;28;20223;-88
2020/12/18 02:00:42;;;;;;;6.07;4.83;;;6.80;99.90;;;;;;4968040;28;21079;-88
2020/12/18 02:03:08;;;;;;;6.60;4.93;;;6.80;99.90;;;;;;4984083;28;20305;-87
2020/12/18 02:05:34;;;;;;;5.83;5.23;;;6.80;99.90;;;;;;4995302;28;20613;-87
2020/12/18 02:08:02;;;;;;;8.33;6.43;;;6.80;99.90;;;;;;5003604;28;20195;-87
2020/12/18 02:10:28;;;;;;;5.80;5.30;;;6.80;99.90;;;;;;5002520;28;20246;-88
2020/12/18 02:12:57;;;;;;;6.27;4.03;;;6.80;99.90;;;;;;5003197;28;20230;-88
2020/12/18 02:15:23;;;;;;;8.07;4.77;;;6.80;99.90;;;;;;5002097;28;20288;-87
2020/12/18 02:17:49;;;;;;;4.50;4.00;;;6.70;99.90;;;;;;5018627;28;20190;-87
2020/12/18 02:20:16;;;;;;;6.33;4.83;;;6.70;99.90;;;;;;5019510;28;20219;-88
2020/12/18 02:22:42;;;;;;;16.97;4.43;;;6.70;99.90;;;;;;4999731;28;20336;-88
2020/12/18 02:25:10;;;;;;;11.23;3.27;;;6.70;99.90;;;;;;5014302;28;20230;-89
2020/12/18 02:27:40;;;;;;;9.77;4.27;;;6.60;99.90;;;;;;5015484;28;20234;-87
2020/12/18 02:30:10;;;;;;;5.53;4.33;;;6.60;99.90;;;;;;5015164;28;20238;-88
2020/12/18 02:32:36;;;;;;;12.07;5.27;;;6.60;99.90;;;;;;5015929;28;20191;-87
2020/12/18 02:35:04;;;;;;;6.37;4.73;;;6.70;99.90;;;;;;4999043;28;20344;-88
2020/12/18 02:37:30;;;;;;;6.37;5.00;;;6.60;99.90;;;;;;5030883;28;20268;-89
2020/12/18 02:39:57;;;;;;;6.17;4.37;;;6.60;99.90;;;;;;4997152;28;20218;-88
2020/12/18 02:42:23;;;;;;;8.00;4.40;;;6.60;99.90;;;;;;4997616;28;20223;-87
2020/12/18 02:44:48;;;;;;;12.73;7.47;;;6.60;99.90;;;;;;4981625;28;21225;-88
2020/12/18 02:47:14;;;;;;;7.23;4.80;;;6.60;99.90;;;;;;5002954;28;20183;-88
2020/12/18 02:49:40;;;;;;;6.93;5.50;;;6.60;99.90;;;;;;5017449;28;20718;-88
2020/12/18 02:52:06;;;;;;;9.47;5.93;;;6.60;99.90;;;;;;5001955;28;20222;-88
2020/12/18 02:54:31;;;;;;;8.47;5.27;;;6.60;99.90;;;;;;5019431;28;20679;-88
2020/12/18 02:56:57;;;;;;;11.17;3.93;;;6.60;99.90;;;;;;5019265;28;20221;-87
2020/12/18 02:59:23;;;;;;;16.93;5.23;;;6.60;99.90;;;;;;5020461;28;20201;-88
2020/12/18 03:01:49;;;;;;;8.03;4.90;;;6.70;99.90;;;;;;5001709;28;20246;-89
2020/12/18 03:04:14;;;;;;;10.87;6.47;;;6.70;99.90;;;;;;5017113;28;20265;-90
2020/12/18 03:06:40;;;;;;;5.30;4.80;;;6.70;99.90;;;;;;5001082;28;20238;-88
2020/12/18 03:09:06;;;;;;;6.60;4.80;;;6.70;99.90;;;;;;4985706;28;20214;-88
2020/12/18 03:11:32;;;;;;;6.30;5.63;;;6.70;99.90;;;;;;5001843;28;20606;-87
2020/12/18 03:13:57;;;;;;;8.13;5.67;;;6.70;99.90;;;;;;5002879;28;20190;-87
2020/12/18 03:16:23;;;;;;;9.00;6.30;;;6.70;99.90;;;;;;5017226;28;20225;-88
2020/12/18 03:18:49;;;;;;;6.10;4.93;;;6.70;99.90;;;;;;5002451;28;20306;-87
2020/12/18 03:21:14;;;;;;;4.87;3.77;;;6.60;99.90;;;;;;5018524;28;21016;-88
2020/12/18 03:23:40;;;;;;;5.70;4.47;;;6.60;99.90;;;;;;5002050;28;20179;-88
2020/12/18 03:26:06;;;;;;;9.40;4.97;;;6.60;99.90;;;;;;5020123;28;20199;-87
2020/12/18 03:28:31;;;;;;;11.07;5.07;;;6.70;99.90;;;;;;5018533;28;20230;-88
2020/12/18 03:30:57;;;;;;;9.23;4.63;;;6.70;99.90;;;;;;5018447;28;20242;-88
2020/12/18 03:33:23;;;;;;;10.80;4.97;;;6.70;99.90;;;;;;5006078;28;20558;-88
2020/12/18 03:35:49;;;;;;;6.60;3.83;;;6.70;99.90;;;;;;5005524;28;20286;-88
2020/12/18 03:38:15;;;;;;;5.40;4.20;;;6.70;99.90;;;;;;5023309;28;20178;-88
2020/12/18 03:40:41;;;;;;;10.47;5.87;;;6.70;99.90;;;;;;5005341;28;20774;-88
2020/12/18 03:43:07;;;;;;;5.97;4.57;;;6.70;99.90;;;;;;5021629;28;20692;-87
2020/12/18 03:45:33;;;;;;;9.20;5.80;;;6.70;99.90;;;;;;4987323;28;20230;-87
2020/12/18 03:47:58;;;;;;;5.40;4.73;;;6.70;99.90;;;;;;5001898;28;20695;-88
2020/12/18 03:50:24;;;;;;;11.60;5.83;;;6.60;99.90;;;;;;5019853;28;20195;-88
2020/12/18 03:52:50;;;;;;;6.40;4.43;;;6.60;99.90;;;;;;5017480;28;20727;-88
2020/12/18 03:55:16;;;;;;;6.47;5.30;;;6.50;99.90;;;;;;5015770;28;20222;-88
2020/12/18 03:57:41;;;;;;;7.27;5.73;;;6.60;99.90;;;;;;5000124;28;20277;-88
2020/12/18 04:00:09;;;;;;;5.17;4.23;;;6.50;99.90;;;;;;5021199;28;20218;-88
2020/12/18 04:02:34;;;;;;;6.87;4.37;;;6.50;99.90;;;;;;5019780;28;20206;-88
2020/12/18 04:05:00;;;;;;;4.33;3.60;;;6.50;99.90;;;;;;5018525;28;20310;-87
2020/12/18 04:07:26;;;;;;;5.63;4.67;;;6.60;99.90;;;;;;4984198;28;20817;-87
2020/12/18 04:09:52;;;;;;;9.53;4.87;;;6.60;99.90;;;;;;4981386;28;20974;-88
2020/12/18 04:12:17;;;;;;;13.77;5.33;;;6.60;99.90;;;;;;4966997;28;20377;-87
2020/12/18 04:14:43;;;;;;;8.63;5.37;;;6.50;99.90;;;;;;4968782;28;20245;-88
2020/12/18 04:17:09;;;;;;;5.13;4.33;;;6.60;99.90;;;;;;5003899;28;20781;-87
2020/12/18 04:19:35;;;;;;;8.63;5.17;;;6.50;99.90;;;;;;4984718;28;20227;-87
2020/12/18 04:22:01;;;;;;;8.80;5.33;;;6.50;99.90;;;;;;4953325;28;20223;-88
2020/12/18 04:24:27;;;;;;;4.63;4.20;;;6.50;99.90;;;;;;5003001;28;20243;-88
2020/12/18 04:26:52;;;;;;;4.43;4.03;;;6.50;99.90;;;;;;4968948;28;20227;-88
2020/12/18 04:29:19;;;;;;;8.83;6.03;;;6.50;99.90;;;;;;4970496;28;21129;-86
2020/12/18 04:31:45;;;;;;;5.80;4.03;;;6.40;99.90;;;;;;4985007;28;20223;-87
2020/12/18 04:34:11;;;;;;;6.30;5.70;;;6.40;99.90;;;;;;4984994;28;20238;-87
2020/12/18 04:36:36;;;;;;;6.93;5.07;;;6.30;99.90;;;;;;4953427;28;20241;-88
2020/12/18 04:39:04;;;;;;;12.30;5.37;;;6.20;99.90;;;;;;5001742;28;20221;-88
2020/12/18 04:41:31;;;;;;;9.77;6.27;;;6.20;99.90;;;;;;4987226;28;20979;-88
2020/12/18 04:43:57;;;;;;;7.93;4.80;;;6.20;99.90;;;;;;4982861;28;20243;-88
2020/12/18 04:46:24;;;;;;;4.67;3.73;;;6.10;99.90;;;;;;4986579;28;21251;-88
2020/12/18 04:48:50;;;;;;;9.97;5.70;;;6.10;99.90;;;;;;4968773;28;20247;-88
2020/12/18 04:51:19;;;;;;;6.50;5.73;;;6.10;99.90;;;;;;4968786;28;20223;-88
2020/12/18 04:53:49;;;;;;;5.03;3.43;;;6.00;99.90;;;;;;5001590;28;20181;-87
2020/12/18 04:56:23;;;;;;;9.13;4.73;;;6.00;99.90;;;;;;4985544;28;20183;-88
2020/12/18 04:58:50;;;;;;;5.77;4.73;;;6.00;99.90;;;;;;5002357;28;20255;-87
2020/12/18 05:01:24;;;;;;;8.03;5.93;;;6.00;99.90;;;;;;4983504;28;20225;-88
2020/12/18 05:03:51;;;;;;;10.80;5.33;;;6.00;99.90;;;;;;4984378;28;20219;-87
2020/12/18 05:06:17;;;;;;;8.63;6.47;;;6.10;99.90;;;;;;5001289;28;20231;-87
2020/12/18 05:08:43;;;;;;;6.10;3.73;;;6.10;99.90;;;;;;5001559;28;20203;-88
2020/12/18 05:11:20;;;;;;;5.57;3.50;;;6.10;99.90;;;;;;4986149;28;20188;-87
2020/12/18 05:13:47;;;;;;;6.60;4.57;;;6.20;99.90;;;;;;5001933;28;20238;-87
2020/12/18 05:16:13;;;;;;;9.37;5.87;;;6.20;99.90;;;;;;4953051;28;20685;-88
2020/12/18 05:18:39;;;;;;;7.30;5.13;;;6.30;99.90;;;;;;4984922;28;20276;-87
2020/12/18 05:21:06;;;;;;;9.70;4.07;;;6.30;99.90;;;;;;4983467;28;20329;-87
2020/12/18 05:23:36;;;;;;;17.67;5.30;;;6.50;99.90;;;;;;4985877;28;20207;-88
2020/12/18 05:26:07;;;;;;;7.87;4.13;;;6.50;99.90;;;;;;4983635;28;20227;-88
2020/12/18 05:28:49;;;;;;;5.87;4.67;;;6.50;99.90;;;;;;4984703;28;20223;-88
2020/12/18 05:31:18;;;;;;;10.43;5.83;;;6.60;99.90;;;;;;4983383;28;20211;-88
2020/12/18 05:33:48;;;;;;;6.70;5.80;;;6.60;99.90;;;;;;4983180;28;20280;-87
2020/12/18 05:36:14;;;;;;;5.33;4.10;;;6.70;99.90;;;;;;5000633;28;20409;-88
2020/12/18 05:38:41;;;;;;;12.10;4.93;;;6.70;99.90;;;;;;4983562;28;20264;-87
2020/12/18 05:41:08;;;;;;;6.10;3.83;;;6.70;99.90;;;;;;4969154;28;20192;-88
2020/12/18 05:43:39;;;;;;;10.37;6.03;;;6.70;99.90;;;;;;4967682;28;20223;-87
2020/12/18 05:46:20;;;;;;;7.00;5.33;;;6.70;99.90;;;;;;4965725;28;20578;-88
2020/12/18 05:48:55;;;;;;;7.43;5.67;;;6.70;99.90;;;;;;4982613;28;20334;-87
2020/12/18 05:51:35;;;;;;;7.43;4.90;;;6.70;99.90;;;;;;4983218;28;20315;-88
2020/12/18 05:54:16;;;;;;;3.63;3.33;;;6.70;99.90;;;;;;4983346;28;20226;-88
2020/12/18 05:56:44;;;;;;;6.93;5.77;;;6.80;99.90;;;;;;5000681;28;20218;-88
2020/12/18 05:59:12;;;;;;;6.60;4.57;;;6.80;99.90;;;;;;4985229;28;20669;-88
2020/12/18 06:01:41;;;;;;;6.37;4.10;;;6.80;99.90;;;;;;4984594;28;20695;-87
2020/12/18 06:04:16;;;;;;;9.57;7.10;;;6.80;99.90;;;;;;4983191;28;20700;-87
2020/12/18 06:06:45;;;;;;;5.17;3.30;;;6.80;99.90;;;;;;5003692;28;20269;-87
2020/12/18 06:09:11;;;;;;;12.13;5.67;;;6.80;99.90;;;;;;5020038;28;20230;-88
2020/12/18 06:11:37;;;;;;;14.33;4.13;;;6.80;99.90;;;;;;5018915;28;20252;-87
2020/12/18 06:14:07;;;;;;;8.57;5.83;;;6.80;99.90;;;;;;5004897;28;20195;-88
2020/12/18 06:16:40;;;;;;;3.43;3.13;;;6.80;99.90;;;;;;5003821;28;20329;-87
2020/12/18 06:19:07;;;;;;;7.80;5.77;;;6.80;99.90;;;;;;5018101;28;20226;-87
2020/12/18 06:21:33;;;;;;;12.87;4.73;;;6.80;99.90;;;;;;5001413;28;20226;-89
2020/12/18 06:24:00;;;;;;;6.93;4.90;;;6.80;99.90;;;;;;5034805;28;20272;-88
2020/12/18 06:26:26;;;;;;;8.50;5.43;;;6.80;99.90;;;;;;5004946;28;20241;-88
2020/12/18 06:28:53;;;;;;;6.60;3.63;;;6.80;99.90;;;;;;5003828;28;20752;-87
2020/12/18 06:31:27;;;;;;;8.00;5.30;;;6.90;99.90;;;;;;5018862;28;20226;-88
2020/12/18 06:33:57;;;;;;;8.57;4.90;;;6.80;99.90;;;;;;5019472;28;20222;-89
2020/12/18 06:36:44;;;;;;;7.83;3.97;;;6.90;99.90;;;;;;5017676;28;20814;-89
2020/12/18 06:39:20;;;;;;;4.53;3.80;;;6.90;99.90;;;;;;5016835;28;20228;-89
2020/12/18 06:41:46;;;;;;;7.60;4.37;;;6.90;99.90;;;;;;5018127;28;20194;-87
2020/12/18 06:44:49;;;;;;;4.30;3.43;;;6.90;99.90;;;;;;5002624;28;21826;-88
2020/12/18 06:47:24;;;;;;;3.80;2.97;;;6.90;99.90;;;;;;5035828;28;20225;-90
2020/12/18 06:49:59;;;;;;;5.97;3.73;;;6.90;99.90;;;;;;5018744;28;20300;-89
2020/12/18 06:52:44;;;;;;;7.03;5.40;;;6.80;99.90;;;;;;5018808;28;20272;-90
2020/12/18 06:55:30;;;;;;;5.43;4.40;;;6.80;99.90;;;;;;5019872;28;20257;-90
2020/12/18 06:58:09;;;;;;;6.47;4.73;;;6.80;99.90;;;;;;5018557;28;20223;-91
2020/12/18 07:00:47;;;;;;;4.03;3.37;;;6.70;99.90;;;;;;5019081;28;20213;-91
2020/12/18 07:03:32;;;;;;;5.07;3.03;;;6.80;99.90;;;;;;5018436;28;20223;-91
2020/12/18 07:06:02;;;;;;;5.20;3.53;;;6.70;99.90;;;;;;5017621;28;20325;-91
2020/12/18 07:08:31;;;;;;;8.80;3.53;;;6.70;99.90;;;;;;5019536;28;20230;-92
2020/12/18 07:11:02;;;;;;;4.07;2.50;;;6.70;99.90;;;;;;5034619;28;20207;-90
2020/12/18 07:13:29;;;;;;;5.23;3.87;;;6.70;99.90;;;;;;5018279;28;20225;-89
2020/12/18 07:16:00;;;;;;;6.43;4.90;;;6.60;99.90;;;;;;5019003;28;20222;-89
2020/12/18 07:18:31;;;;;;;7.47;5.13;;;6.60;99.90;;;;;;5018686;28;20276;-91
2020/12/18 07:21:05;;;;;;;10.50;3.57;;;6.60;99.90;;;;;;5002318;28;20222;-89
2020/12/18 07:23:32;;;;;;;5.50;4.13;;;6.50;99.90;;;;;;5015908;28;20186;-89
2020/12/18 07:25:59;;;;;;;3.93;3.07;;;6.50;99.90;;;;;;5015623;28;20276;-90
2020/12/18 07:28:27;;;;;;;5.20;4.47;;;6.40;99.90;;;;;;5013723;28;20297;-90
2020/12/18 07:30:55;;;;;;;8.33;5.67;;;6.40;99.90;;;;;;5014874;28;20300;-91
2020/12/18 07:33:21;;;;;;;5.03;3.83;;;6.40;99.90;;;;;;5003058;28;20230;-94
2020/12/18 07:35:55;;;;;;;3.80;3.03;;;6.40;99.90;;;;;;5001820;28;20200;-95
2020/12/18 07:38:22;;;;;;;4.10;3.30;;;6.50;99.90;;;;;;5015232;28;20270;-91
2020/12/18 07:40:51;;;;;;;5.30;4.40;;;6.50;99.90;;;;;;5015019;28;20230;-89
2020/12/18 07:43:19;;;;;;;6.00;3.53;;;6.50;99.90;;;;;;5016474;28;20253;-92
2020/12/18 07:45:47;;;;;;;4.17;3.77;;;6.50;99.90;;;;;;5016822;28;20289;-93
2020/12/18 07:48:16;;;;;;;7.43;4.03;;;6.50;99.90;;;;;;5018707;28;20222;-91
2020/12/18 07:50:57;;;;;;;21.87;4.47;;;6.50;99.90;;;;;;5018358;28;21322;-92
2020/12/18 07:53:23;;;;;;;6.00;3.87;;;6.60;99.90;;;;;;5020140;28;20190;-91
2020/12/18 07:56:10;;;;;;;9.87;5.40;;;6.60;99.90;;;;;;5018178;28;20228;-91
2020/12/18 07:58:54;;;;;;;11.13;5.23;;;6.60;99.90;;;;;;5036096;28;21336;-91
2020/12/18 08:01:28;;;;;;;7.83;3.93;;;6.60;99.90;;;;;;5019477;28;20234;-92
2020/12/18 08:04:13;;;;;;;9.77;3.90;;;6.60;99.90;;;;;;5003068;28;20214;-92
2020/12/18 08:06:41;;;;;;;3.90;3.50;;;6.70;99.90;;;;;;5002897;28;20230;-92
2020/12/18 08:09:09;;;;;;;3.80;2.90;;;6.70;99.90;;;;;;5019631;28;20222;-91
2020/12/18 08:11:42;;;;;;;6.33;4.00;;;6.70;99.90;;;;;;5017383;28;20332;-91
2020/12/18 08:14:08;;;;;;;6.50;3.47;;;6.70;99.90;;;;;;5036055;28;20285;-92
2020/12/18 08:16:35;;;;;;;5.63;3.33;;;6.70;99.90;;;;;;5002020;28;20226;-90
2020/12/18 08:19:08;;;;;;;4.03;3.47;;;6.70;99.90;;;;;;5004501;28;20672;-91
2020/12/18 08:21:36;;;;;;;4.87;4.37;;;6.80;99.90;;;;;;5038974;28;20222;-91
2020/12/18 08:24:24;;;;;;;4.77;4.00;;;6.80;99.90;;;;;;5021544;28;20227;-90
2020/12/18 08:27:15;;;;;;;4.20;3.40;;;6.70;99.90;;;;;;5038809;28;20190;-90
2020/12/18 08:29:43;;;;;;;7.83;3.13;;;6.80;99.90;;;;;;5021432;28;20187;-93
2020/12/18 08:32:12;;;;;;;5.57;3.13;;;6.80;99.90;;;;;;5023413;28;20286;-90
2020/12/18 08:34:39;;;;;;;4.87;3.30;;;6.80;99.90;;;;;;5020949;28;20226;-93
2020/12/18 08:37:04;;;;;;;4.30;3.07;;;6.90;99.90;;;;;;5004950;28;20225;-93
2020/12/18 08:39:35;;;;;;;2.83;2.33;;;7.00;99.90;;;;;;5004835;28;20592;-92
2020/12/18 08:42:02;;;;;;;12.00;5.20;;;7.00;99.90;;;;;;5037594;28;20692;-93
2020/12/18 08:44:35;;;;;;;9.10;3.83;;;7.10;99.90;;;;;;5021353;28;20260;-91
2020/12/18 08:47:01;;;;;;;4.13;3.83;;;7.20;99.90;;;;;;5038557;28;20219;-93
2020/12/18 08:49:28;;;;;;;5.37;2.97;;;7.20;99.90;;;;;;5021916;28;20230;-93
2020/12/18 08:51:56;;;;;;;5.17;4.67;;;7.30;99.90;;;;;;5021584;28;20321;-91
2020/12/18 08:54:38;;;;;;;9.30;4.73;;;7.30;99.90;;;;;;5020538;28;20497;-92
2020/12/18 08:57:31;;;;;;;11.70;5.80;;;7.40;99.90;;;;;;5021198;28;20218;-93
2020/12/18 09:00:18;;;;;;;9.53;5.67;;;7.50;99.90;;;;;;5021841;28;20297;-92
2020/12/18 09:02:49;;;;;;;7.10;3.90;;;7.50;99.90;;;;;;5021853;28;20989;-90
2020/12/18 09:05:17;;;;;;;14.70;7.10;;;7.50;99.90;;;;;;5023157;28;20293;-92
2020/12/18 09:07:53;;;;;;;8.07;5.30;;;7.50;99.90;;;;;;5021659;28;20322;-89
2020/12/18 09:10:52;;;;;;;6.13;4.63;;;7.60;99.90;;;;;;5020573;28;20619;-92
2020/12/18 09:13:26;;;;;;;5.07;4.57;;;7.60;99.90;;;;;;5006958;28;20250;-94
2020/12/18 09:16:00;;;;;;;10.53;4.37;;;7.50;99.90;;;;;;5021313;28;20222;-92
2020/12/18 09:18:28;;;;;;;5.23;4.40;;;7.50;99.90;;;;;;5020679;28;20221;-92
2020/12/18 09:20:55;;;;;;;5.97;3.73;;;7.60;99.90;;;;;;5020785;28;20226;-92
2020/12/18 09:23:31;;;;;;;8.50;6.40;;;7.50;99.90;;;;;;5021954;28;21250;-90
2020/12/18 09:26:01;;;;;;;17.87;12.87;;;7.50;99.90;;;;;;5004923;28;20237;-90
2020/12/18 09:28:33;;;;;;;26.23;16.80;;;7.50;99.90;;;;;;5022289;28;20226;-89
2020/12/18 09:30:59;;;;;;;16.20;9.70;;;7.50;99.90;;;;;;5020699;28;20211;-90
2020/12/18 09:33:27;;;;;;;15.53;10.23;;;7.50;99.90;;;;;;5004381;28;20222;-91
2020/12/18 09:36:07;;;;;;;15.77;9.07;;;7.50;99.90;;;;;;5021360;28;20858;-92
2020/12/18 09:38:44;;;;;;;8.27;6.77;;;7.50;99.90;;;;;;5022518;28;20183;-91
2020/12/18 09:41:19;;;;;;;12.53;6.87;;;7.50;99.90;;;;;;5020709;28;20213;-91
2020/12/18 09:43:44;;;;;;;9.57;5.10;;;7.50;99.90;;;;;;5020225;28;20213;-92
2020/12/18 09:46:13;;;;;;;10.73;7.30;;;7.50;99.90;;;;;;5019433;28;20556;-92
2020/12/18 09:48:45;;;;;;;15.40;8.90;;;7.50;99.90;;;;;;5020874;28;20276;-91
2020/12/18 09:51:11;;;;;;;25.43;6.47;;;7.50;99.90;;;;;;5020872;28;20623;-92
2020/12/18 09:53:37;;;;;;;7.23;5.50;;;7.60;99.90;;;;;;5021273;28;20727;-91
2020/12/18 09:56:06;;;;;;;8.10;5.73;;;7.60;99.90;;;;;;5005744;28;20306;-91
2020/12/18 09:58:32;;;;;;;6.97;5.77;;;7.60;99.90;;;;;;5014835;28;20218;-91
2020/12/18 10:00:57;;;;;;;11.67;6.90;;;7.70;99.90;;;;;;5001605;28;21097;-92
2020/12/18 10:03:23;;;;;;;21.43;6.10;;;7.70;99.90;;;;;;5003979;28;20747;-91
2020/12/18 10:05:49;;;;;;;10.30;6.03;;;7.70;99.90;;;;;;5002187;28;21102;-92
2020/12/18 10:08:15;;;;;;;12.37;7.37;;;7.70;99.90;;;;;;4971179;28;20238;-90
2020/12/18 10:10:41;;;;;;;16.33;6.77;;;7.80;99.90;;;;;;4968049;28;20614;-92
2020/12/18 10:13:07;;;;;;;12.33;7.40;;;7.80;99.90;;;;;;4968627;28;20318;-91
2020/12/18 10:15:33;;;;;;;5.83;5.30;;;7.90;99.90;;;;;;4984380;28;20218;-87
2020/12/18 10:17:58;;;;;;;5.73;4.60;;;7.90;99.90;;;;;;4983498;28;22187;-91
2020/12/18 10:20:24;;;;;;;10.67;4.83;;;7.90;99.90;;;;;;4986124;28;20179;-88
2020/12/18 10:22:50;;;;;;;13.83;7.47;;;7.90;99.90;;;;;;4968762;28;20219;-90
2020/12/18 10:25:16;;;;;;;16.43;6.67;;;8.00;99.90;;;;;;4983732;28;20675;-92
2020/12/18 10:27:43;;;;;;;9.10;5.30;;;8.00;99.90;;;;;;4984055;28;20274;-91
2020/12/18 10:30:09;;;;;;;18.17;7.37;;;8.10;99.90;;;;;;5001142;28;20293;-95
2020/12/18 10:32:36;;;;;;;10.77;6.77;;;8.10;99.90;;;;;;4967862;28;20197;-94
2020/12/18 10:35:03;;;;;;;13.47;7.73;;;8.10;99.90;;;;;;4984539;28;20187;-90
2020/12/18 10:37:29;;;;;;;9.23;6.00;;;8.10;99.90;;;;;;4983978;28;20218;-92
2020/12/18 10:39:55;;;;;;;13.20;7.23;;;8.20;99.90;;;;;;4983401;28;21117;-93
2020/12/18 10:42:21;;;;;;;7.00;6.30;;;8.30;99.90;;;;;;4965145;28;20223;-92
2020/12/18 10:44:47;;;;;;;9.67;5.23;;;8.30;99.90;;;;;;4980571;28;20211;-93
2020/12/18 10:47:13;;;;;;;7.97;5.47;;;8.30;99.90;;;;;;4984975;28;20187;-94
2020/12/18 10:49:41;;;;;;;12.37;5.23;;;8.30;99.90;;;;;;4983178;28;20307;-93
2020/12/18 10:52:07;;;;;;;14.10;6.73;;;8.40;99.90;;;;;;4983793;28;20241;-92
2020/12/18 10:54:33;;;;;;;7.77;5.90;;;8.50;99.90;;;;;;4983847;28;20215;-93
2020/12/18 10:56:59;;;;;;;7.10;5.17;;;8.50;99.90;;;;;;4954239;28;20238;-91
2020/12/18 10:59:29;;;;;;;10.77;5.07;;;8.60;99.90;;;;;;4992102;28;20235;-94
2020/12/18 11:01:56;;;;;;;11.30;6.20;;;8.60;99.90;;;;;;4982021;28;20688;-93
2020/12/18 11:04:23;;;;;;;9.53;7.60;;;8.70;99.90;;;;;;4981744;28;20239;-93
2020/12/18 11:06:49;;;;;;;9.90;6.93;;;8.80;99.90;;;;;;4996624;28;20526;-91
2020/12/18 11:09:16;;;;;;;8.47;6.30;;;8.90;99.90;;;;;;5003780;28;20706;-91
2020/12/18 11:11:45;;;;;;;10.50;5.87;;;8.90;99.90;;;;;;5016875;28;20663;-91
2020/12/18 11:14:11;;;;;;;7.60;6.03;;;9.00;99.90;;;;;;5016747;28;20198;-91
2020/12/18 11:16:38;;;;;;;9.17;5.27;;;9.00;99.90;;;;;;5014600;28;20210;-92
2020/12/18 11:19:04;;;;;;;9.40;6.17;;;9.00;99.90;;;;;;4998944;28;20683;-91
2020/12/18 11:21:31;;;;;;;14.20;6.77;;;9.00;99.90;;;;;;5016942;28;20261;-91
2020/12/18 11:23:57;;;;;;;13.30;8.17;;;9.10;99.90;;;;;;5016183;28;20223;-92
2020/12/18 11:26:24;;;;;;;7.97;5.80;;;9.00;99.90;;;;;;5004254;28;20348;-90
2020/12/18 11:28:50;;;;;;;8.13;4.43;;;9.00;99.90;;;;;;5016680;28;20218;-90
2020/12/18 11:31:16;;;;;;;10.07;5.40;;;9.00;99.90;;;;;;4998409;28;20249;-90
2020/12/18 11:33:42;;;;;;;8.10;4.63;;;9.10;99.90;;;;;;5014206;28;20222;-89
2020/12/18 11:36:08;;;;;;;11.67;7.17;;;9.10;99.90;;;;;;4998535;28;20226;-91
2020/12/18 11:38:34;;;;;;;9.13;6.40;;;9.10;99.90;;;;;;5015400;28;20221;-90
2020/12/18 11:41:00;;;;;;;9.30;5.93;;;9.10;99.90;;;;;;4984466;28;20693;-93
2020/12/18 11:43:26;;;;;;;8.53;5.43;;;9.10;99.90;;;;;;5018558;28;20227;-91
2020/12/18 11:45:52;;;;;;;11.77;6.07;;;9.10;99.90;;;;;;5017872;28;20856;-91
2020/12/18 11:48:17;;;;;;;10.23;5.37;;;9.20;99.90;;;;;;4987454;28;21971;-89
2020/12/18 11:50:43;;;;;;;6.60;4.77;;;9.20;99.90;;;;;;5002702;28;20773;-90
2020/12/18 11:53:09;;;;;;;12.73;5.80;;;9.20;99.90;;;;;;5005240;28;20292;-90
2020/12/18 11:55:36;;;;;;;8.27;5.20;;;9.20;99.90;;;;;;5021763;28;20222;-93
2020/12/18 11:58:02;;;;;;;15.70;5.73;;;9.20;99.90;;;;;;5022260;28;20218;-90
2020/12/18 12:00:27;;;;;;;13.03;6.27;;;9.30;99.90;;;;;;5030553;28;20218;-91
2020/12/18 12:02:54;;;;;;;7.47;5.27;;;9.40;99.90;;;;;;5039834;28;20198;-91
2020/12/18 12:05:22;;;;;;;7.90;4.83;;;9.40;99.90;;;;;;5024544;28;20237;-91
2020/12/18 12:07:48;;;;;;;10.40;5.07;;;9.50;99.90;;;;;;5021764;28;20673;-91
2020/12/18 12:10:16;;;;;;;10.03;6.00;;;9.50;99.90;;;;;;5023636;28;20586;-91
2020/12/18 12:12:43;;;;;;;7.47;5.60;;;9.50;99.90;;;;;;5022011;28;20219;-92
2020/12/18 12:15:09;;;;;;;10.03;5.97;;;9.50;99.90;;;;;;5006974;28;20325;-89
2020/12/18 12:17:35;;;;;;;8.20;4.60;;;9.60;99.90;;;;;;5008211;28;20201;-89
2020/12/18 12:20:01;;;;;;;5.97;5.07;;;9.60;99.90;;;;;;5022643;28;20306;-90
2020/12/18 12:22:27;;;;;;;4.80;4.10;;;9.60;99.90;;;;;;5021415;28;20341;-91
2020/12/18 12:24:55;;;;;;;6.87;5.23;;;9.60;99.90;;;;;;5021107;28;20715;-90
2020/12/18 12:27:26;;;;;;;4.63;3.43;;;9.60;99.90;;;;;;5017569;28;20244;-90
2020/12/18 12:29:52;;;;;;;5.17;4.63;;;9.60;99.90;;;;;;5017639;28;20270;-89
2020/12/18 12:32:19;;;;;;;6.10;3.67;;;9.70;99.90;;;;;;5002389;28;20190;-91
2020/12/18 12:34:45;;;;;;;10.77;4.63;;;9.70;99.90;;;;;;5018715;28;20292;-91
2020/12/18 12:37:11;;;;;;;10.73;4.40;;;9.70;99.90;;;;;;5001260;28;20233;-89
2020/12/18 12:39:39;;;;;;;4.47;3.03;;;9.80;99.90;;;;;;5000848;28;20222;-89
2020/12/18 12:42:05;;;;;;;6.40;4.93;;;10.10;99.90;;;;;;5002452;28;20841;-91
2020/12/18 12:44:31;;;;;;;7.27;4.57;;;10.60;99.90;;;;;;5018221;28;20240;-90
2020/12/18 12:46:57;;;;;;;3.90;3.50;;;11.00;99.90;;;;;;5017577;28;20680;-89
2020/12/18 12:49:24;;;;;;;5.47;4.23;;;11.30;99.90;;;;;;5020691;28;20726;-90
2020/12/18 12:51:54;;;;;;;5.40;3.73;;;10.90;99.90;;;;;;5021294;28;20218;-90
2020/12/18 12:54:20;;;;;;;4.07;3.50;;;10.60;99.90;;;;;;5022632;28;20222;-87
2020/12/18 12:56:46;;;;;;;6.90;4.37;;;10.40;99.90;;;;;;5021218;28;20193;-88
2020/12/18 12:59:12;;;;;;;5.37;2.93;;;10.30;99.90;;;;;;5023950;28;20190;-89